createdAt,value
2018-03-04T00:01:49.850Z,35.83
2018-03-04T00:04:19.061Z,35.70
2018-03-04T00:06:47.465Z,35.97
2018-03-04T00:09:15.848Z,37.20
2018-03-04T00:11:44.272Z,36.07
2018-03-04T00:14:13.433Z,32.93
2018-03-04T00:16:41.868Z,34.07
2018-03-04T00:19:10.253Z,33.63
2018-03-04T00:21:38.689Z,32.63
2018-03-04T00:24:07.078Z,35.20
2018-03-04T00:26:36.247Z,37.90
2018-03-04T00:29:04.709Z,36.43
2018-03-04T00:31:33.094Z,38.37
2018-03-04T00:34:01.494Z,37.37
2018-03-04T00:36:30.021Z,39.37
2018-03-04T00:38:58.404Z,36.87
2018-03-04T00:41:26.807Z,36.37
2018-03-04T00:43:55.225Z,38.27
2018-03-04T00:46:24.384Z,35.90
2018-03-04T00:48:52.780Z,36.90
2018-03-04T00:51:21.220Z,35.80
2018-03-04T00:53:49.607Z,33.43
2018-03-04T00:56:18.019Z,37.93
2018-03-04T00:58:46.466Z,36.73
2018-03-04T01:01:14.862Z,37.00
2018-03-04T01:03:43.266Z,35.53
2018-03-04T01:06:12.601Z,35.13
2018-03-04T01:08:40.993Z,34.07
2018-03-04T01:11:09.235Z,36.27
2018-03-04T01:13:37.652Z,34.23
2018-03-04T01:16:06.078Z,35.63
2018-03-04T01:18:35.241Z,36.03
2018-03-04T01:21:03.656Z,36.97
2018-03-04T01:23:32.816Z,34.73
2018-03-04T01:26:01.217Z,35.97
2018-03-04T01:28:30.237Z,34.00
2018-03-04T01:30:58.642Z,35.43
2018-03-04T01:33:27.025Z,34.83
2018-03-04T01:35:56.191Z,35.77
2018-03-04T01:38:24.883Z,36.20
2018-03-04T01:40:53.280Z,33.90
2018-03-04T01:43:21.548Z,33.40
2018-03-04T01:45:49.942Z,33.43
2018-03-04T01:48:18.345Z,32.07
2018-03-04T01:50:47.537Z,32.53
2018-03-04T01:53:15.967Z,32.60
2018-03-04T01:55:44.357Z,30.37
2018-03-04T01:58:12.753Z,30.17
2018-03-04T02:00:41.178Z,31.53
2018-03-04T02:03:09.581Z,31.30
2018-03-04T02:05:37.981Z,27.57
2018-03-04T02:08:06.417Z,29.33
2018-03-04T02:10:34.816Z,28.53
2018-03-04T02:13:03.195Z,27.97
2018-03-04T02:15:31.612Z,28.53
2018-03-04T02:18:00.008Z,26.77
2018-03-04T02:20:29.196Z,26.27
2018-03-04T02:22:58.347Z,23.80
2018-03-04T02:25:27.578Z,24.03
2018-03-04T02:27:56.798Z,24.90
2018-03-04T02:30:26.976Z,25.07
2018-03-04T02:32:56.147Z,25.50
2018-03-04T02:35:25.600Z,24.50
2018-03-04T02:37:54.833Z,25.10
2018-03-04T02:40:23.242Z,24.80
2018-03-04T02:42:52.736Z,23.90
2018-03-04T02:45:21.137Z,22.97
2018-03-04T02:47:49.539Z,22.67
2018-03-04T02:50:18.751Z,21.93
2018-03-04T02:52:48.905Z,21.93
2018-03-04T02:55:17.306Z,21.27
2018-03-04T02:57:45.760Z,21.77
2018-03-04T03:00:13.845Z,21.90
2018-03-04T03:02:42.470Z,20.63
2018-03-04T03:05:11.767Z,20.13
2018-03-04T03:07:41.884Z,20.67
2018-03-04T03:10:11.032Z,20.27
2018-03-04T03:12:39.500Z,19.43
2018-03-04T03:15:07.918Z,18.93
2018-03-04T03:17:36.361Z,18.47
2018-03-04T03:20:04.754Z,18.30
2018-03-04T03:22:33.144Z,18.67
2018-03-04T03:25:02.350Z,19.73
2018-03-04T03:27:30.742Z,17.90
2018-03-04T03:29:59.137Z,20.70
2018-03-04T03:32:28.358Z,16.43
2018-03-04T03:34:56.762Z,18.03
2018-03-04T03:37:25.151Z,22.53
2018-03-04T03:39:53.573Z,21.57
2018-03-04T03:42:22.736Z,23.37
2018-03-04T03:44:51.137Z,21.57
2018-03-04T03:47:20.307Z,22.50
2018-03-04T03:49:48.704Z,19.80
2018-03-04T03:52:17.901Z,21.97
2018-03-04T03:54:47.067Z,21.17
2018-03-04T03:57:16.489Z,22.17
2018-03-04T03:59:44.915Z,21.93
2018-03-04T04:02:13.305Z,20.10
2018-03-04T04:04:41.753Z,26.53
2018-03-04T04:07:10.136Z,24.67
2018-03-04T04:09:38.525Z,24.73
2018-03-04T04:12:07.777Z,22.73
2018-03-04T04:14:36.206Z,23.10
2018-03-04T04:17:04.602Z,23.80
2018-03-04T04:19:34.968Z,22.80
2018-03-04T04:22:04.133Z,22.07
2018-03-04T04:24:32.526Z,20.83
2018-03-04T04:27:00.958Z,20.97
2018-03-04T04:29:29.401Z,20.50
2018-03-04T04:31:58.549Z,18.93
2018-03-04T04:34:26.939Z,20.63
2018-03-04T04:36:55.367Z,19.40
2018-03-04T04:39:23.766Z,19.67
2018-03-04T04:41:52.179Z,18.87
2018-03-04T04:44:20.640Z,18.77
2018-03-04T04:46:49.936Z,18.03
2018-03-04T04:49:18.343Z,17.60
2018-03-04T04:51:47.038Z,17.10
2018-03-04T04:54:16.813Z,16.83
2018-03-04T04:56:45.284Z,16.03
2018-03-04T04:59:13.667Z,16.53
2018-03-04T05:01:42.056Z,14.97
2018-03-04T05:04:10.487Z,13.77
2018-03-04T05:06:38.903Z,14.57
2018-03-04T05:09:07.291Z,12.50
2018-03-04T05:11:35.725Z,12.83
2018-03-04T05:14:04.120Z,12.70
2018-03-04T05:16:32.522Z,12.03
2018-03-04T05:19:00.955Z,12.60
2018-03-04T05:21:29.343Z,11.30
2018-03-04T05:23:57.731Z,11.30
2018-03-04T05:26:26.167Z,12.80
2018-03-04T05:28:54.757Z,12.07
2018-03-04T05:31:23.930Z,11.07
2018-03-04T05:33:52.365Z,11.30
2018-03-04T05:36:20.771Z,10.70
2018-03-04T05:38:49.173Z,11.60
2018-03-04T05:41:17.603Z,11.50
2018-03-04T05:43:46.007Z,10.87
2018-03-04T05:46:14.407Z,10.67
2018-03-04T05:48:42.834Z,10.57
2018-03-04T05:51:11.045Z,10.20
2018-03-04T05:53:41.239Z,10.40
2018-03-04T05:56:09.668Z,9.77
2018-03-04T05:58:38.829Z,9.63
2018-03-04T06:01:07.280Z,9.30
2018-03-04T06:03:36.340Z,8.27
2018-03-04T06:06:05.879Z,9.27
2018-03-04T06:08:34.278Z,8.37
2018-03-04T06:11:02.675Z,8.47
2018-03-04T06:13:31.121Z,7.97
2018-03-04T06:15:59.519Z,8.13
2018-03-04T06:18:27.908Z,7.70
2018-03-04T06:20:56.346Z,7.33
2018-03-04T06:23:24.741Z,7.53
2018-03-04T06:25:53.145Z,7.00
2018-03-04T06:28:21.557Z,6.80
2018-03-04T06:30:50.866Z,6.40
2018-03-04T06:33:19.279Z,6.83
2018-03-04T06:35:47.673Z,6.37
2018-03-04T06:38:16.079Z,7.10
2018-03-04T06:40:45.267Z,6.57
2018-03-04T06:43:14.424Z,6.20
2018-03-04T06:45:43.013Z,6.27
2018-03-04T06:48:11.441Z,5.87
2018-03-04T06:50:40.633Z,6.10
2018-03-04T06:53:09.788Z,6.10
2018-03-04T06:55:38.946Z,5.40
2018-03-04T06:58:07.545Z,6.23
2018-03-04T07:00:36.521Z,6.37
2018-03-04T07:03:04.912Z,5.83
2018-03-04T07:05:33.349Z,5.73
2018-03-04T07:08:02.508Z,6.10
2018-03-04T07:10:30.922Z,5.70
2018-03-04T07:13:00.136Z,5.60
2018-03-04T07:15:28.534Z,5.00
2018-03-04T07:17:56.925Z,5.47
2018-03-04T07:20:25.337Z,5.10
2018-03-04T07:22:53.745Z,5.53
2018-03-04T07:25:22.137Z,5.20
2018-03-04T07:27:50.529Z,5.40
2018-03-04T07:30:18.952Z,5.23
2018-03-04T07:32:48.121Z,5.60
2018-03-04T07:35:16.525Z,5.67
2018-03-04T07:37:45.745Z,5.73
2018-03-04T07:40:14.140Z,5.90
2018-03-04T07:42:42.531Z,5.37
2018-03-04T07:45:10.942Z,5.80
2018-03-04T07:47:39.323Z,6.13
2018-03-04T07:50:07.918Z,5.47
2018-03-04T07:52:38.038Z,5.77
2018-03-04T07:55:07.215Z,6.23
2018-03-04T07:57:35.651Z,6.23
2018-03-04T08:00:03.764Z,5.70
2018-03-04T08:02:32.161Z,6.07
2018-03-04T08:05:00.778Z,6.57
2018-03-04T08:07:29.336Z,6.20
2018-03-04T08:09:57.737Z,5.73
2018-03-04T08:12:26.159Z,5.83
2018-03-04T08:14:54.536Z,5.47
2018-03-04T08:17:22.933Z,5.10
2018-03-04T08:19:52.126Z,5.87
2018-03-04T08:22:21.273Z,5.43
2018-03-04T08:25:00.981Z,5.20
2018-03-04T08:27:40.668Z,4.63
2018-03-04T08:30:09.107Z,5.07
2018-03-04T08:32:38.342Z,4.70
2018-03-04T08:35:08.213Z,4.50
2018-03-04T08:37:37.218Z,4.87
2018-03-04T08:40:05.638Z,4.80
2018-03-04T08:42:34.033Z,4.87
2018-03-04T08:45:02.477Z,4.70
2018-03-04T08:47:30.933Z,4.43
2018-03-04T08:49:59.332Z,4.30
2018-03-04T08:52:27.710Z,4.13
2018-03-04T08:54:56.902Z,5.60
2018-03-04T08:57:25.539Z,5.00
2018-03-04T08:59:54.696Z,4.93
2018-03-04T09:02:23.083Z,4.67
2018-03-04T09:04:51.518Z,5.27
2018-03-04T09:07:19.988Z,5.00
2018-03-04T09:09:48.178Z,4.87
2018-03-04T09:12:16.624Z,5.07
2018-03-04T09:14:45.824Z,3.87
2018-03-04T09:17:14.252Z,4.97
2018-03-04T09:19:42.655Z,4.77
2018-03-04T09:22:11.944Z,5.00
2018-03-04T09:24:40.993Z,5.20
2018-03-04T09:27:09.606Z,5.27
2018-03-04T09:29:38.770Z,4.60
2018-03-04T09:32:07.220Z,5.10
2018-03-04T09:34:36.360Z,4.80
2018-03-04T09:37:04.780Z,5.07
2018-03-04T09:39:33.962Z,5.70
2018-03-04T09:42:02.373Z,5.13
2018-03-04T09:44:30.798Z,5.50
2018-03-04T09:46:59.191Z,5.90
2018-03-04T09:49:27.595Z,5.17
2018-03-04T09:51:56.777Z,5.60
2018-03-04T09:54:25.176Z,5.47
2018-03-04T09:56:53.782Z,5.07
2018-03-04T09:59:22.177Z,5.80
2018-03-04T10:01:50.567Z,5.20
2018-03-04T10:04:19.012Z,6.27
2018-03-04T10:06:47.443Z,6.50
2018-03-04T10:09:15.990Z,5.27
2018-03-04T10:11:44.414Z,6.03
2018-03-04T10:14:13.568Z,5.80
2018-03-04T10:16:42.329Z,5.20
2018-03-04T10:19:10.758Z,6.40
2018-03-04T10:21:39.148Z,6.47
2018-03-04T10:24:08.324Z,5.97
2018-03-04T10:26:36.732Z,6.63
2018-03-04T10:29:05.937Z,6.37
2018-03-04T10:31:34.318Z,6.77
2018-03-04T10:34:02.720Z,5.97
2018-03-04T10:36:31.167Z,7.07
2018-03-04T10:39:00.334Z,7.00
2018-03-04T10:41:28.730Z,8.03
2018-03-04T10:43:57.918Z,9.40
2018-03-04T10:46:27.081Z,8.77
2018-03-04T10:48:55.488Z,6.50
2018-03-04T10:51:24.698Z,8.87
2018-03-04T10:53:53.848Z,8.97
2018-03-04T10:56:22.243Z,9.83
2018-03-04T10:58:50.888Z,8.30
2018-03-04T11:01:19.998Z,9.40
2018-03-04T11:03:48.210Z,8.17
2018-03-04T11:06:16.909Z,10.33
2018-03-04T11:08:45.883Z,10.60
2018-03-04T11:11:14.278Z,9.53
2018-03-04T11:13:43.483Z,10.50
2018-03-04T11:16:11.872Z,9.63
2018-03-04T11:18:41.086Z,10.67
2018-03-04T11:21:09.576Z,7.17
2018-03-04T11:23:38.742Z,8.07
2018-03-04T11:26:07.132Z,8.67
2018-03-04T11:28:35.590Z,9.93
2018-03-04T11:31:04.124Z,8.70
2018-03-04T11:33:32.554Z,10.37
2018-03-04T11:36:00.944Z,10.83
2018-03-04T11:38:29.385Z,9.60
2018-03-04T11:40:58.554Z,10.07
2018-03-04T11:43:26.933Z,11.93
2018-03-04T11:45:55.354Z,10.67
2018-03-04T11:48:23.780Z,10.60
2018-03-04T11:50:52.180Z,12.63
2018-03-04T11:53:20.617Z,13.37
2018-03-04T11:55:49.045Z,11.67
2018-03-04T11:58:17.604Z,12.20
2018-03-04T12:00:46.591Z,12.93
2018-03-04T12:03:14.996Z,12.83
2018-03-04T12:05:44.147Z,12.70
2018-03-04T12:08:12.581Z,12.13
2018-03-04T12:10:42.100Z,12.23
2018-03-04T12:13:10.953Z,12.53
2018-03-04T12:15:40.084Z,12.20
2018-03-04T12:18:08.492Z,12.43
2018-03-04T12:20:36.918Z,12.57
2018-03-04T12:23:06.077Z,13.17
2018-03-04T12:25:34.479Z,13.53
2018-03-04T12:28:02.917Z,12.20
2018-03-04T12:30:31.319Z,12.30
2018-03-04T12:32:59.726Z,13.60
2018-03-04T12:35:28.741Z,10.07
2018-03-04T12:37:57.124Z,12.67
2018-03-04T12:40:25.512Z,11.67
2018-03-04T12:42:53.934Z,11.87
2018-03-04T12:45:22.326Z,13.57
2018-03-04T12:47:51.518Z,14.33
2018-03-04T12:50:20.681Z,13.30
2018-03-04T12:52:49.077Z,16.10
2018-03-04T12:55:17.528Z,15.30
2018-03-04T12:57:45.925Z,16.77
2018-03-04T13:00:14.328Z,16.53
2018-03-04T13:02:43.579Z,17.33
2018-03-04T13:05:12.976Z,15.73
2018-03-04T13:07:41.783Z,17.03
2018-03-04T13:10:11.349Z,16.73
2018-03-04T13:12:39.812Z,20.43
2018-03-04T13:15:07.538Z,18.40
2018-03-04T13:17:35.636Z,16.97
2018-03-04T13:20:04.800Z,15.00
2018-03-04T13:22:33.245Z,16.73
2018-03-04T13:25:01.645Z,17.00
2018-03-04T13:27:30.041Z,15.03
2018-03-04T13:29:58.480Z,18.03
2018-03-04T13:32:26.873Z,16.23
2018-03-04T13:34:55.268Z,15.57
2018-03-04T13:37:23.685Z,11.27
2018-03-04T13:39:52.858Z,12.13
2018-03-04T13:42:21.299Z,11.87
2018-03-04T13:44:50.451Z,13.37
2018-03-04T13:47:19.609Z,10.77
2018-03-04T13:49:48.029Z,11.30
2018-03-04T13:52:17.230Z,11.53
2018-03-04T13:54:45.668Z,13.70
2018-03-04T13:57:14.051Z,14.57
2018-03-04T13:59:43.357Z,13.07
2018-03-04T14:02:12.774Z,13.57
2018-03-04T14:04:41.937Z,13.17
2018-03-04T14:07:11.175Z,13.53
2018-03-04T14:09:39.759Z,9.77
2018-03-04T14:12:08.175Z,13.77
2018-03-04T14:14:36.596Z,9.70
2018-03-04T14:17:05.743Z,10.67
2018-03-04T14:19:34.135Z,13.07
2018-03-04T14:22:02.541Z,13.33
2018-03-04T14:24:31.705Z,13.10
2018-03-04T14:27:00.125Z,10.97
2018-03-04T14:29:29.279Z,16.53
2018-03-04T14:31:59.414Z,12.33
2018-03-04T14:34:27.803Z,8.50
2018-03-04T14:36:56.309Z,15.60
2018-03-04T14:39:24.840Z,13.87
2018-03-04T14:41:53.237Z,11.47
2018-03-04T14:44:21.639Z,12.93
2018-03-04T14:46:50.800Z,15.30
2018-03-04T14:49:19.213Z,10.60
2018-03-04T14:51:48.392Z,18.60
2018-03-04T14:54:17.574Z,12.87
2018-03-04T14:56:45.980Z,12.67
2018-03-04T14:59:15.174Z,11.83
2018-03-04T15:01:43.733Z,11.33
2018-03-04T15:04:12.138Z,16.87
2018-03-04T15:06:43.214Z,18.10
2018-03-04T15:09:11.291Z,13.93
2018-03-04T15:11:39.747Z,12.13
2018-03-04T15:14:08.172Z,13.43
2018-03-04T15:16:36.712Z,15.77
2018-03-04T15:19:05.095Z,18.07
2018-03-04T15:21:33.478Z,12.60
2018-03-04T15:24:01.697Z,14.50
2018-03-04T15:26:30.894Z,10.20
2018-03-04T15:29:00.053Z,18.90
2018-03-04T15:31:28.444Z,12.13
2018-03-04T15:33:56.848Z,18.73
2018-03-04T15:36:25.998Z,20.63
2018-03-04T15:38:55.163Z,20.37
2018-03-04T15:41:23.556Z,21.53
2018-03-04T15:43:51.966Z,18.77
2018-03-04T15:46:20.364Z,19.37
2018-03-04T15:48:48.769Z,19.23
2018-03-04T15:51:17.167Z,22.70
2018-03-04T15:53:45.584Z,22.53
2018-03-04T15:56:14.003Z,21.80
2018-03-04T15:58:43.402Z,17.27
2018-03-04T16:01:12.779Z,21.67
2018-03-04T16:03:42.150Z,17.20
2018-03-04T16:06:10.583Z,17.63
2018-03-04T16:08:39.032Z,21.60
2018-03-04T16:11:07.580Z,22.63
2018-03-04T16:13:35.996Z,16.77
2018-03-04T16:16:05.173Z,25.00
2018-03-04T16:18:33.582Z,22.80
2018-03-04T16:21:02.769Z,18.70
2018-03-04T16:23:31.928Z,20.17
2018-03-04T16:26:00.144Z,27.63
2018-03-04T16:28:29.323Z,23.00
2018-03-04T16:30:57.722Z,24.00
2018-03-04T16:33:26.905Z,27.97
2018-03-04T16:35:56.065Z,28.13
2018-03-04T16:38:24.467Z,29.47
2018-03-04T16:40:52.860Z,30.77
2018-03-04T16:43:21.854Z,30.97
2018-03-04T16:45:51.092Z,30.03
2018-03-04T16:48:19.492Z,29.33
2018-03-04T16:50:48.604Z,31.13
2018-03-04T16:53:17.031Z,31.77
2018-03-04T16:55:45.442Z,30.43
2018-03-04T16:58:13.836Z,29.67
2018-03-04T17:00:42.818Z,29.80
2018-03-04T17:03:11.973Z,28.87
2018-03-04T17:05:41.233Z,27.83
2018-03-04T17:08:09.966Z,29.47
2018-03-04T17:10:38.396Z,26.67
2018-03-04T17:13:07.742Z,17.87
2018-03-04T17:15:36.153Z,24.77
2018-03-04T17:18:04.236Z,21.07
2018-03-04T17:20:32.619Z,22.40
2018-03-04T17:23:01.977Z,15.70
2018-03-04T17:25:30.377Z,17.57
2018-03-04T17:27:58.774Z,15.53
2018-03-04T17:30:27.187Z,25.23
2018-03-04T17:32:56.665Z,16.53
2018-03-04T17:35:25.850Z,14.27
2018-03-04T17:37:54.254Z,12.40
2018-03-04T17:40:23.433Z,13.87
2018-03-04T17:42:51.829Z,15.50
2018-03-04T17:45:21.008Z,14.17
2018-03-04T17:47:49.580Z,16.33
2018-03-04T17:50:18.001Z,15.17
2018-03-04T17:52:47.482Z,18.33
2018-03-04T17:55:16.628Z,16.43
2018-03-04T17:57:45.050Z,11.97
2018-03-04T18:00:13.625Z,16.33
2018-03-04T18:02:42.824Z,17.20
2018-03-04T18:05:12.542Z,15.43
2018-03-04T18:07:42.548Z,14.47
2018-03-04T18:10:12.537Z,18.57
2018-03-04T18:12:40.934Z,16.43
2018-03-04T18:15:09.356Z,13.23
2018-03-04T18:17:37.758Z,16.53
2018-03-04T18:20:06.201Z,19.57
2018-03-04T18:22:34.599Z,19.07
2018-03-04T18:25:03.038Z,19.10
2018-03-04T18:27:32.201Z,14.20
2018-03-04T18:30:00.606Z,17.07
2018-03-04T18:32:29.760Z,14.47
2018-03-04T18:34:58.173Z,15.50
2018-03-04T18:37:26.581Z,17.83
2018-03-04T18:39:55.019Z,21.23
2018-03-04T18:42:23.416Z,20.47
2018-03-04T18:44:52.567Z,14.73
2018-03-04T18:47:20.983Z,15.63
2018-03-04T18:49:49.477Z,22.53
2018-03-04T18:52:18.633Z,19.77
2018-03-04T18:54:47.057Z,19.17
2018-03-04T18:57:16.230Z,18.13
2018-03-04T18:59:44.636Z,19.77
2018-03-04T19:02:13.048Z,16.57
2018-03-04T19:04:41.474Z,19.77
2018-03-04T19:07:10.675Z,21.83
2018-03-04T19:09:39.893Z,20.17
2018-03-04T19:12:08.293Z,22.97
2018-03-04T19:14:36.690Z,17.83
2018-03-04T19:17:05.104Z,20.20
2018-03-04T19:19:33.502Z,17.10
2018-03-04T19:22:02.745Z,16.80
2018-03-04T19:24:32.050Z,16.23
2018-03-04T19:27:00.453Z,8.40
2018-03-04T19:29:28.851Z,17.30
2018-03-04T19:31:57.086Z,18.80
2018-03-04T19:34:26.247Z,20.20
2018-03-04T19:36:54.653Z,9.43
2018-03-04T19:39:23.825Z,14.47
2018-03-04T19:41:52.240Z,13.30
2018-03-04T19:44:21.420Z,13.67
2018-03-04T19:46:50.578Z,17.50
2018-03-04T19:49:18.992Z,11.83
2018-03-04T19:51:47.383Z,16.97
2018-03-04T19:54:16.543Z,14.63
2018-03-04T19:56:44.954Z,14.00
2018-03-04T19:59:14.120Z,12.63
2018-03-04T20:01:43.256Z,15.53
2018-03-04T20:04:13.076Z,12.90
2018-03-04T20:06:41.504Z,12.23
2018-03-04T20:09:10.007Z,11.70
2018-03-04T20:11:39.181Z,12.30
2018-03-04T20:14:07.590Z,12.60
2018-03-04T20:16:36.783Z,16.23
2018-03-04T20:19:05.940Z,10.57
2018-03-04T20:21:34.349Z,16.90
2018-03-04T20:24:02.741Z,16.17
2018-03-04T20:26:31.981Z,10.13
2018-03-04T20:29:00.518Z,9.97
2018-03-04T20:31:29.681Z,12.53
2018-03-04T20:33:58.091Z,12.17
2018-03-04T20:36:27.244Z,9.90
2018-03-04T20:38:55.662Z,10.17
2018-03-04T20:41:24.819Z,9.67
2018-03-04T20:43:53.233Z,8.80
2018-03-04T20:46:21.623Z,12.37
2018-03-04T20:48:50.780Z,10.03
2018-03-04T20:51:19.181Z,10.50
2018-03-04T20:53:47.372Z,5.67
2018-03-04T20:56:16.566Z,7.77
2018-03-04T20:58:45.719Z,9.73
2018-03-04T21:01:14.116Z,11.83
2018-03-04T21:03:43.339Z,7.43
2018-03-04T21:06:13.169Z,10.83
2018-03-04T21:08:41.581Z,13.63
2018-03-04T21:11:10.042Z,16.10
2018-03-04T21:13:38.448Z,20.03
2018-03-04T21:16:06.841Z,18.73
2018-03-04T21:18:35.250Z,16.23
2018-03-04T21:21:04.426Z,16.77
2018-03-04T21:23:32.814Z,13.83
2018-03-04T21:26:01.982Z,13.87
2018-03-04T21:28:30.402Z,15.37
2018-03-04T21:30:59.558Z,23.23
2018-03-04T21:33:27.960Z,25.43
2018-03-04T21:35:57.141Z,23.20
2018-03-04T21:38:25.534Z,21.53
2018-03-04T21:40:54.707Z,23.87
2018-03-04T21:43:23.307Z,25.17
2018-03-04T21:45:51.713Z,25.13
2018-03-04T21:48:20.105Z,25.03
2018-03-04T21:50:48.521Z,26.07
2018-03-04T21:53:16.918Z,26.60
2018-03-04T21:55:45.327Z,26.00
2018-03-04T21:58:14.660Z,25.57
2018-03-04T22:00:43.046Z,25.43
2018-03-04T22:03:12.135Z,26.67
2018-03-04T22:05:41.653Z,26.27
2018-03-04T22:08:10.100Z,26.60
2018-03-04T22:10:38.504Z,27.10
2018-03-04T22:13:06.890Z,25.97
2018-03-04T22:15:35.297Z,27.10
2018-03-04T22:18:04.461Z,26.90
2018-03-04T22:20:32.859Z,28.47
2018-03-04T22:23:01.252Z,28.57
2018-03-04T22:25:30.464Z,27.47
2018-03-04T22:27:58.865Z,28.00
2018-03-04T22:30:27.277Z,27.60
2018-03-04T22:32:55.666Z,27.73
2018-03-04T22:35:24.838Z,26.30
2018-03-04T22:37:53.249Z,27.17
2018-03-04T22:40:22.421Z,27.07
2018-03-04T22:42:50.837Z,26.40
2018-03-04T22:45:20.038Z,26.30
2018-03-04T22:47:48.611Z,25.77
2018-03-04T22:50:17.776Z,26.47
2018-03-04T22:52:46.178Z,26.03
2018-03-04T22:55:15.352Z,25.53
2018-03-04T22:57:43.760Z,26.17
2018-03-04T23:00:12.933Z,26.43
2018-03-04T23:02:44.844Z,27.33
2018-03-04T23:05:13.251Z,25.87
2018-03-04T23:07:41.647Z,25.80
2018-03-04T23:10:10.127Z,25.67
2018-03-04T23:12:38.507Z,27.40
2018-03-04T23:15:06.901Z,25.53
2018-03-04T23:17:36.075Z,26.77
2018-03-04T23:20:04.511Z,26.63
2018-03-04T23:22:32.933Z,27.03
2018-03-04T23:25:01.345Z,25.93
2018-03-04T23:27:30.688Z,25.70
2018-03-04T23:29:59.092Z,25.10
2018-03-04T23:32:27.494Z,23.73
2018-03-04T23:34:56.669Z,25.07
2018-03-04T23:37:25.113Z,23.83
2018-03-04T23:39:53.501Z,22.80
2018-03-04T23:42:21.890Z,22.87
2018-03-04T23:44:50.319Z,22.17
2018-03-04T23:47:18.727Z,22.10
2018-03-04T23:49:47.130Z,21.33
2018-03-04T23:52:15.547Z,22.93
2018-03-04T23:54:43.948Z,21.57
2018-03-04T23:57:12.368Z,20.93
2018-03-04T23:59:41.014Z,20.47
